Pierre, South Dakota
Current Conditions -  °F | °C
As of 5:53 PM on Thursday 18 Dec 2014 (Local Time) from KPIR Reporting Station
Overcast Overcast  
Wind Chill: 22°   Ceiling: 1200
Heat Index: 28°   Visibility: 10mi
Dew Point: 24°   Wind: 6mph
Humidity: 85%   Direction: 180°S
Pressure: 30.06"   Gusts: NA
Location:  44.37°N, 100.35°W
Report Text: KPIR 182353Z AUTO 18005KT 10SM OVC012 M02/M04 A3006 RMK AO2 SLP202 T10221044 11017 21039 51002
Loading
Personal Weather Stations






























Interactive Weather Map New forecast layout! Learn more

10-Day Weather Forecast

Advertisements
Track Severe Weather on mobile